createdAt,value
2022-08-29T00:00:31.283Z,86.40
2022-08-29T00:03:00.142Z,86.70
2022-08-29T00:05:31.564Z,86.80
2022-08-29T00:07:59.603Z,86.70
2022-08-29T00:10:28.130Z,86.90
2022-08-29T00:12:55.051Z,86.90
2022-08-29T00:15:25.206Z,87.00
2022-08-29T00:17:52.450Z,87.00
2022-08-29T00:20:30.450Z,87.10
2022-08-29T00:23:03.071Z,87.20
2022-08-29T00:25:30.349Z,87.30
2022-08-29T00:27:57.411Z,87.40
2022-08-29T00:30:24.794Z,87.30
2022-08-29T00:32:52.145Z,87.70
2022-08-29T00:35:27.301Z,87.80
2022-08-29T00:37:55.079Z,87.50
2022-08-29T00:40:26.194Z,87.60
2022-08-29T00:42:53.085Z,87.90
2022-08-29T00:45:19.944Z,87.80
2022-08-29T00:47:57.273Z,88.10
2022-08-29T00:50:38.407Z,88.20
2022-08-29T00:53:08.438Z,88.50
2022-08-29T00:55:38.705Z,88.60
2022-08-29T00:58:11.724Z,88.70
2022-08-29T01:00:42.630Z,88.90
2022-08-29T01:03:09.773Z,88.90
2022-08-29T01:05:45.235Z,89.00
2022-08-29T01:08:12.385Z,89.00
2022-08-29T01:10:57.837Z,89.00
2022-08-29T01:13:31.401Z,89.00
2022-08-29T01:15:59.101Z,88.90
2022-08-29T01:18:27.025Z,89.20
2022-08-29T01:21:03.855Z,89.30
2022-08-29T01:23:54.890Z,89.20
2022-08-29T01:26:23.026Z,89.10
2022-08-29T01:28:52.191Z,89.20
2022-08-29T01:31:42.193Z,89.20
2022-08-29T01:34:14.130Z,89.20
2022-08-29T01:36:57.352Z,89.30
2022-08-29T01:39:27.585Z,89.20
2022-08-29T01:41:55.338Z,89.20
2022-08-29T01:44:23.116Z,89.10
2022-08-29T01:46:56.806Z,89.20
2022-08-29T01:49:25.917Z,89.30
2022-08-29T01:51:52.630Z,89.20
2022-08-29T01:54:20.110Z,89.30
2022-08-29T01:56:49.891Z,89.40
2022-08-29T01:59:19.735Z,89.60
2022-08-29T02:01:51.935Z,89.70
2022-08-29T02:04:19.192Z,90.00
2022-08-29T02:06:45.922Z,90.20
2022-08-29T02:09:12.691Z,90.30
2022-08-29T02:11:39.863Z,90.40
2022-08-29T02:14:07.804Z,90.30
2022-08-29T02:16:39.952Z,90.10
2022-08-29T02:19:06.744Z,90.10
2022-08-29T02:21:33.477Z,90.10
2022-08-29T02:24:21.264Z,90.30
2022-08-29T02:26:49.488Z,90.50
2022-08-29T02:29:16.316Z,90.30
2022-08-29T02:31:43.518Z,90.30
2022-08-29T02:34:11.453Z,90.20
2022-08-29T02:36:38.743Z,90.10
2022-08-29T02:39:08.499Z,90.50
2022-08-29T02:41:35.910Z,90.80
2022-08-29T02:44:03.074Z,90.90
2022-08-29T02:46:29.875Z,91.40
2022-08-29T02:49:00.843Z,91.30
2022-08-29T02:51:31.747Z,91.20
2022-08-29T02:53:59.940Z,91.20
2022-08-29T02:56:27.573Z,91.40
2022-08-29T02:58:54.445Z,92.30
2022-08-29T03:01:22.837Z,93.40
2022-08-29T03:03:50.481Z,92.90
2022-08-29T03:06:18.498Z,92.90
2022-08-29T03:08:45.389Z,93.20
2022-08-29T03:11:12.120Z,93.40
2022-08-29T03:13:38.949Z,93.40
2022-08-29T03:16:06.185Z,93.70
2022-08-29T03:18:34.127Z,93.70
2022-08-29T03:21:00.874Z,93.80
2022-08-29T03:23:27.875Z,93.90
2022-08-29T03:25:55.388Z,93.90
2022-08-29T03:28:22.160Z,93.80
2022-08-29T03:30:48.889Z,94.00
2022-08-29T03:33:15.737Z,94.10
2022-08-29T03:35:42.887Z,94.80
2022-08-29T03:38:10.031Z,95.00
2022-08-29T03:40:36.956Z,95.10
2022-08-29T03:43:03.800Z,94.70
2022-08-29T03:45:30.784Z,94.80
2022-08-29T03:47:57.591Z,95.10
2022-08-29T03:50:24.675Z,95.40
2022-08-29T03:52:51.882Z,95.40
2022-08-29T03:55:20.229Z,95.60
2022-08-29T03:57:47.377Z,95.60
2022-08-29T04:00:16.482Z,95.60
2022-08-29T04:02:47.707Z,95.60
2022-08-29T04:05:17.012Z,95.60
2022-08-29T04:07:47.768Z,95.60
2022-08-29T04:10:39.713Z,95.50
2022-08-29T04:13:08.035Z,95.40
2022-08-29T04:15:35.748Z,95.30
2022-08-29T04:18:04.512Z,95.30
2022-08-29T04:20:39.405Z,95.10
2022-08-29T04:23:06.456Z,95.10
2022-08-29T04:25:37.316Z,94.80
2022-08-29T04:28:06.953Z,94.80
2022-08-29T04:30:34.512Z,94.90
2022-08-29T04:33:01.962Z,95.00
2022-08-29T04:35:28.933Z,94.80
2022-08-29T04:37:55.764Z,94.90
2022-08-29T04:40:23.435Z,94.80
2022-08-29T04:42:50.759Z,94.80
2022-08-29T04:45:20.622Z,94.80
2022-08-29T04:47:47.629Z,94.80
2022-08-29T04:50:18.274Z,94.80
2022-08-29T04:52:45.482Z,94.90
2022-08-29T04:55:13.140Z,95.00
2022-08-29T04:57:40.811Z,94.80
2022-08-29T05:00:12.984Z,94.90
2022-08-29T05:02:42.178Z,94.80
2022-08-29T05:05:11.413Z,94.70
2022-08-29T05:07:38.513Z,94.60
2022-08-29T05:10:20.578Z,94.80
2022-08-29T05:12:47.867Z,95.20
2022-08-29T05:15:15.930Z,95.00
2022-08-29T05:17:43.582Z,94.70
2022-08-29T05:20:11.230Z,94.80
2022-08-29T05:22:39.274Z,94.80
2022-08-29T05:25:06.687Z,94.60
2022-08-29T05:27:33.468Z,94.50
2022-08-29T05:30:01.459Z,94.50
2022-08-29T05:32:28.236Z,94.40
2022-08-29T05:34:55.943Z,94.30
2022-08-29T05:37:23.215Z,94.50
2022-08-29T05:39:50.847Z,94.60
2022-08-29T05:42:20.920Z,95.00
2022-08-29T05:44:48.187Z,94.50
2022-08-29T05:47:16.982Z,95.00
2022-08-29T05:49:45.280Z,94.80
2022-08-29T05:52:13.783Z,94.40
2022-08-29T05:54:42.837Z,94.50
2022-08-29T05:57:18.181Z,94.30
2022-08-29T05:59:50.660Z,93.80
2022-08-29T06:02:19.148Z,93.50
2022-08-29T06:04:46.344Z,93.30
2022-08-29T06:07:13.776Z,92.60
2022-08-29T06:09:42.787Z,92.20
2022-08-29T06:12:10.668Z,91.90
2022-08-29T06:14:37.930Z,92.00
2022-08-29T06:17:06.187Z,91.80
2022-08-29T06:19:35.988Z,91.60
2022-08-29T06:22:03.534Z,91.60
2022-08-29T06:24:38.755Z,91.50
2022-08-29T06:27:06.115Z,90.70
2022-08-29T06:29:32.914Z,90.40
2022-08-29T06:32:09.869Z,89.40
2022-08-29T06:34:36.655Z,88.80
2022-08-29T06:37:03.458Z,88.80
2022-08-29T06:39:30.177Z,87.70
2022-08-29T06:41:56.946Z,88.00
2022-08-29T06:44:24.708Z,91.30
2022-08-29T06:46:51.431Z,86.30
2022-08-29T06:49:20.381Z,86.00
2022-08-29T06:51:56.795Z,86.00
2022-08-29T06:54:28.104Z,85.60
2022-08-29T06:56:55.818Z,85.70
2022-08-29T06:59:22.577Z,85.90
2022-08-29T07:01:49.512Z,86.10
2022-08-29T07:04:16.423Z,86.40
2022-08-29T07:06:48.164Z,86.40
2022-08-29T07:09:15.014Z,86.00
2022-08-29T07:11:42.537Z,86.40
2022-08-29T07:14:10.389Z,85.90
2022-08-29T07:16:37.657Z,86.20
2022-08-29T07:19:06.946Z,86.10
2022-08-29T07:21:33.965Z,86.40
2022-08-29T07:24:00.737Z,86.10
2022-08-29T07:26:38.671Z,85.50
2022-08-29T07:29:10.453Z,85.20
2022-08-29T07:31:39.030Z,84.30
2022-08-29T07:34:06.832Z,83.70
2022-08-29T07:36:36.514Z,82.90
2022-08-29T07:39:07.403Z,81.70
2022-08-29T07:41:34.672Z,80.60
2022-08-29T07:44:01.629Z,79.90
2022-08-29T07:46:29.048Z,79.70
2022-08-29T07:48:58.534Z,78.60
2022-08-29T07:51:26.767Z,79.40
2022-08-29T07:53:53.890Z,79.00
2022-08-29T07:56:26.659Z,77.40
2022-08-29T07:58:54.304Z,76.00
2022-08-29T08:01:22.085Z,76.70
2022-08-29T08:03:50.746Z,75.00
2022-08-29T08:06:19.517Z,73.90
2022-08-29T08:08:46.641Z,73.20
2022-08-29T08:11:13.518Z,72.60
2022-08-29T08:13:40.625Z,72.00
2022-08-29T08:16:11.276Z,71.70
2022-08-29T08:18:39.868Z,71.90
2022-08-29T08:21:06.640Z,71.40
2022-08-29T08:23:33.518Z,71.20
2022-08-29T08:26:00.944Z,71.20
2022-08-29T08:28:29.094Z,72.80
2022-08-29T08:30:56.359Z,71.00
2022-08-29T08:33:23.594Z,71.90
2022-08-29T08:35:50.632Z,71.40
2022-08-29T08:38:18.415Z,70.30
2022-08-29T08:41:01.077Z,69.30
2022-08-29T08:43:54.411Z,68.70
2022-08-29T08:46:34.285Z,69.50
2022-08-29T08:49:04.989Z,68.80
2022-08-29T08:51:35.524Z,69.90
2022-08-29T08:54:08.181Z,69.40
2022-08-29T08:56:38.925Z,69.40
2022-08-29T08:59:34.326Z,69.70
2022-08-29T09:02:13.697Z,69.00
2022-08-29T09:04:59.645Z,69.20
2022-08-29T09:07:32.264Z,70.60
2022-08-29T09:10:39.428Z,69.90
2022-08-29T09:13:29.305Z,68.80
2022-08-29T09:16:00.760Z,68.50
2022-08-29T09:18:35.240Z,67.80
2022-08-29T09:21:10.035Z,69.50
2022-08-29T09:24:01.938Z,68.50
2022-08-29T09:26:28.688Z,67.70
2022-08-29T09:28:55.535Z,67.00
2022-08-29T09:31:32.592Z,66.40
2022-08-29T09:34:12.014Z,67.10
2022-08-29T09:36:51.005Z,66.40
2022-08-29T09:39:28.505Z,66.60
2022-08-29T09:42:12.328Z,66.20
2022-08-29T09:44:40.800Z,67.10
2022-08-29T09:47:21.027Z,66.90
2022-08-29T09:50:20.549Z,66.10
2022-08-29T09:52:57.699Z,65.90
2022-08-29T09:55:38.584Z,66.00
2022-08-29T09:58:10.266Z,66.20
2022-08-29T10:00:39.306Z,65.60
2022-08-29T10:03:10.708Z,66.10
2022-08-29T10:05:44.568Z,65.90
2022-08-29T10:08:29.580Z,64.90
2022-08-29T10:11:02.733Z,65.80
2022-08-29T10:13:58.927Z,65.40
2022-08-29T10:16:38.454Z,64.50
2022-08-29T10:19:15.709Z,64.10
2022-08-29T10:21:55.155Z,64.60
2022-08-29T10:24:46.758Z,65.10
2022-08-29T10:27:24.095Z,64.00
2022-08-29T10:30:07.550Z,63.90
2022-08-29T10:32:59.404Z,64.00
2022-08-29T10:36:14.249Z,63.60
2022-08-29T10:39:00.029Z,63.10
2022-08-29T10:41:32.619Z,64.40
2022-08-29T10:44:10.414Z,63.90
2022-08-29T10:47:04.666Z,63.80
2022-08-29T10:49:44.871Z,64.00
2022-08-29T10:52:22.785Z,63.50
2022-08-29T10:55:04.593Z,64.90
2022-08-29T10:57:50.905Z,65.40
2022-08-29T11:00:24.536Z,64.90
2022-08-29T11:03:08.115Z,65.10
2022-08-29T11:05:44.333Z,63.70
2022-08-29T11:08:27.987Z,65.00
2022-08-29T11:10:54.953Z,64.30
2022-08-29T11:14:05.405Z,64.20
2022-08-29T11:16:47.528Z,65.30
2022-08-29T11:19:27.332Z,64.30
2022-08-29T11:22:36.475Z,63.70
2022-08-29T11:25:16.359Z,64.30
2022-08-29T11:27:57.111Z,64.30
2022-08-29T11:30:53.378Z,63.40
2022-08-29T11:33:35.369Z,65.20
2022-08-29T11:36:27.394Z,64.90
2022-08-29T11:39:19.936Z,64.50
2022-08-29T11:41:54.096Z,63.70
2022-08-29T11:44:33.547Z,62.80
2022-08-29T11:47:00.806Z,62.50
2022-08-29T11:49:31.978Z,62.80
2022-08-29T11:52:13.477Z,62.30
2022-08-29T11:54:43.041Z,62.80
2022-08-29T11:57:09.895Z,62.50
2022-08-29T11:59:48.852Z,61.60
2022-08-29T12:02:27.980Z,61.10
2022-08-29T12:05:02.150Z,61.50
2022-08-29T12:07:49.926Z,61.20
2022-08-29T12:10:19.668Z,61.90
2022-08-29T12:12:51.277Z,62.40
2022-08-29T12:15:27.303Z,61.70
2022-08-29T12:18:02.445Z,61.30
2022-08-29T12:20:30.342Z,60.60
2022-08-29T12:23:11.077Z,60.60
2022-08-29T12:25:44.793Z,59.80
2022-08-29T12:28:32.826Z,59.80
2022-08-29T12:31:01.222Z,58.30
2022-08-29T12:33:36.075Z,58.40
2022-08-29T12:37:02.388Z,58.10
2022-08-29T12:40:03.640Z,57.70
2022-08-29T12:42:39.652Z,58.10
2022-08-29T12:45:11.847Z,58.10
2022-08-29T12:47:53.622Z,58.30
2022-08-29T12:50:34.412Z,58.10
2022-08-29T12:53:20.361Z,57.70
2022-08-29T12:55:51.553Z,58.10
2022-08-29T12:58:40.941Z,58.40
2022-08-29T13:01:26.341Z,58.40
2022-08-29T13:04:05.606Z,58.50
2022-08-29T13:06:33.661Z,58.80
2022-08-29T13:09:01.815Z,58.50
2022-08-29T13:11:31.098Z,58.90
2022-08-29T13:14:11.253Z,58.70
2022-08-29T13:16:40.091Z,58.40
2022-08-29T13:19:20.401Z,58.30
2022-08-29T13:21:47.582Z,58.90
2022-08-29T13:24:20.034Z,59.20
2022-08-29T13:27:02.696Z,59.60
2022-08-29T13:29:39.796Z,59.20
2022-08-29T13:32:26.774Z,58.80
2022-08-29T13:35:06.049Z,59.00
2022-08-29T13:37:36.654Z,58.90
2022-08-29T13:40:49.280Z,58.90
2022-08-29T13:43:28.058Z,59.00
2022-08-29T13:46:14.999Z,59.30
2022-08-29T13:48:43.574Z,58.70
2022-08-29T13:51:10.949Z,58.60
2022-08-29T13:53:37.801Z,58.80
2022-08-29T13:56:04.888Z,57.80
2022-08-29T13:58:32.446Z,58.00
2022-08-29T14:00:59.623Z,58.30
2022-08-29T14:03:26.535Z,57.80
2022-08-29T14:05:56.565Z,58.40
2022-08-29T14:08:24.680Z,57.90
2022-08-29T14:10:52.251Z,58.10
2022-08-29T14:13:19.148Z,57.90
2022-08-29T14:15:46.138Z,57.70
2022-08-29T14:18:12.974Z,57.20
2022-08-29T14:20:39.801Z,57.70
2022-08-29T14:23:06.642Z,58.00
2022-08-29T14:25:33.604Z,58.30
2022-08-29T14:28:00.610Z,57.80
2022-08-29T14:30:27.584Z,57.60
2022-08-29T14:32:54.427Z,57.70
2022-08-29T14:35:26.715Z,58.40
2022-08-29T14:37:59.301Z,57.40
2022-08-29T14:40:26.269Z,58.50
2022-08-29T14:42:56.214Z,59.30
2022-08-29T14:45:22.958Z,59.70
2022-08-29T14:47:50.123Z,59.70
2022-08-29T14:50:16.860Z,60.00
2022-08-29T14:52:44.105Z,60.10
2022-08-29T14:55:12.490Z,59.90
2022-08-29T14:57:39.644Z,60.50
2022-08-29T15:00:27.979Z,59.90
2022-08-29T15:02:55.161Z,60.00
2022-08-29T15:05:23.397Z,60.10
2022-08-29T15:07:50.959Z,59.90
2022-08-29T15:10:21.340Z,59.70
2022-08-29T15:12:48.173Z,60.10
2022-08-29T15:15:14.994Z,60.20
2022-08-29T15:17:43.536Z,59.50
2022-08-29T15:22:59.742Z,59.90
2022-08-29T15:25:26.934Z,59.80
2022-08-29T15:27:53.689Z,59.60
2022-08-29T15:30:24.379Z,59.80
2022-08-29T15:32:52.171Z,59.60
2022-08-29T15:35:19.212Z,59.40
2022-08-29T15:37:46.014Z,59.40
2022-08-29T15:40:13.755Z,59.50
2022-08-29T15:42:40.887Z,59.90
2022-08-29T15:45:10.507Z,59.80
2022-08-29T15:47:38.760Z,59.40
2022-08-29T15:50:07.795Z,59.50
2022-08-29T15:52:35.959Z,59.70
2022-08-29T15:55:03.540Z,59.90
2022-08-29T15:57:30.349Z,59.80
2022-08-29T15:59:58.621Z,60.10
2022-08-29T16:02:26.953Z,59.60
2022-08-29T16:04:56.870Z,59.70
2022-08-29T16:07:29.223Z,59.80
2022-08-29T16:10:00.130Z,59.10
2022-08-29T16:12:28.381Z,59.50
2022-08-29T16:15:00.054Z,59.30
2022-08-29T16:17:29.713Z,59.40
2022-08-29T16:19:56.830Z,59.60
2022-08-29T16:22:24.138Z,59.90
2022-08-29T16:24:50.860Z,59.70
2022-08-29T16:27:21.925Z,59.90
2022-08-29T16:29:48.712Z,60.30
2022-08-29T16:32:15.507Z,59.80
2022-08-29T16:34:42.264Z,59.80
2022-08-29T16:37:09.015Z,59.60
2022-08-29T16:39:36.233Z,60.40
2022-08-29T16:42:03.006Z,60.10
2022-08-29T16:44:31.662Z,60.40
2022-08-29T16:46:58.623Z,60.40
2022-08-29T16:49:25.717Z,60.60
2022-08-29T16:51:52.560Z,60.80
2022-08-29T16:54:19.506Z,61.10
2022-08-29T16:56:46.191Z,60.90
2022-08-29T16:59:13.501Z,60.60
2022-08-29T17:01:43.491Z,60.80
2022-08-29T17:04:21.149Z,60.60
2022-08-29T17:06:48.168Z,60.10
2022-08-29T17:09:17.051Z,59.90
2022-08-29T17:11:44.253Z,60.60
2022-08-29T17:14:11.798Z,60.40
2022-08-29T17:16:38.958Z,60.10
2022-08-29T17:19:06.909Z,60.40
2022-08-29T17:21:34.790Z,60.60
2022-08-29T17:24:02.965Z,60.60
2022-08-29T17:26:30.559Z,60.40
2022-08-29T17:28:57.260Z,60.80
2022-08-29T17:31:24.213Z,60.70
2022-08-29T17:33:51.316Z,61.20
2022-08-29T17:36:18.857Z,61.20
2022-08-29T17:38:47.535Z,61.50
2022-08-29T17:41:18.014Z,61.60
2022-08-29T17:43:47.247Z,61.60
2022-08-29T17:46:16.565Z,61.50
2022-08-29T17:48:43.559Z,62.00
2022-08-29T17:51:11.768Z,61.80
2022-08-29T17:53:39.525Z,62.60
2022-08-29T17:56:19.791Z,62.90
2022-08-29T17:58:47.251Z,62.70
2022-08-29T18:01:16.455Z,61.90
2022-08-29T18:03:44.551Z,62.20
2022-08-29T18:06:14.283Z,62.70
2022-08-29T18:08:48.142Z,62.50
2022-08-29T18:11:16.262Z,63.20
2022-08-29T18:13:43.621Z,63.30
2022-08-29T18:16:10.798Z,63.40
2022-08-29T18:18:38.994Z,63.90
2022-08-29T18:21:05.877Z,64.30
2022-08-29T18:23:33.408Z,64.00
2022-08-29T18:26:00.993Z,64.10
2022-08-29T18:28:28.022Z,64.30
2022-08-29T18:30:55.683Z,64.10
2022-08-29T18:33:22.420Z,63.90
2022-08-29T18:35:49.087Z,64.20
2022-08-29T18:38:16.219Z,64.20
2022-08-29T18:40:43.873Z,64.30
2022-08-29T18:43:13.256Z,64.50
2022-08-29T18:45:41.171Z,65.00
2022-08-29T18:48:08.751Z,65.70
2022-08-29T18:50:36.470Z,66.00
2022-08-29T18:53:19.691Z,66.10
2022-08-29T18:55:50.510Z,66.40
2022-08-29T18:58:21.146Z,66.60
2022-08-29T19:00:48.446Z,66.80
2022-08-29T19:03:15.590Z,67.30
2022-08-29T19:05:47.658Z,67.70
2022-08-29T19:08:15.420Z,67.90
2022-08-29T19:10:45.214Z,68.20
2022-08-29T19:13:14.623Z,68.50
2022-08-29T19:15:42.309Z,68.90
2022-08-29T19:18:10.724Z,69.20
2022-08-29T19:20:56.063Z,69.50
2022-08-29T19:23:23.306Z,69.60
2022-08-29T19:25:50.726Z,70.00
2022-08-29T19:28:19.681Z,70.50
2022-08-29T19:30:47.713Z,70.80
2022-08-29T19:33:17.795Z,71.20
2022-08-29T19:35:51.148Z,71.50
2022-08-29T19:38:20.552Z,71.80
2022-08-29T19:40:48.563Z,72.00
2022-08-29T19:43:16.278Z,72.30
2022-08-29T19:45:44.162Z,72.50
2022-08-29T19:48:15.157Z,72.60
2022-08-29T19:50:47.495Z,72.80
2022-08-29T19:53:19.972Z,73.10
2022-08-29T19:55:55.260Z,73.30
2022-08-29T19:58:22.831Z,73.70
2022-08-29T20:00:57.958Z,73.80
2022-08-29T20:03:24.676Z,74.10
2022-08-29T20:05:51.595Z,74.20
2022-08-29T20:08:18.435Z,74.40
2022-08-29T20:10:49.605Z,74.70
2022-08-29T20:13:17.354Z,74.90
2022-08-29T20:15:44.372Z,74.90
2022-08-29T20:18:11.552Z,75.10
2022-08-29T20:20:40.071Z,75.20
2022-08-29T20:23:07.518Z,75.40
2022-08-29T20:25:34.970Z,75.60
2022-08-29T20:28:02.190Z,75.70
2022-08-29T20:30:31.552Z,75.90
2022-08-29T20:32:58.523Z,76.10
2022-08-29T20:35:44.345Z,76.20
2022-08-29T20:38:11.532Z,76.40
2022-08-29T20:40:42.504Z,76.60
2022-08-29T20:43:09.275Z,76.60
2022-08-29T20:45:38.354Z,76.70
2022-08-29T20:48:05.306Z,76.90
2022-08-29T20:50:31.966Z,76.90
2022-08-29T20:52:58.624Z,76.90
2022-08-29T20:55:25.367Z,76.90
2022-08-29T20:57:52.064Z,76.90
2022-08-29T21:00:19.652Z,76.90
2022-08-29T21:03:05.630Z,77.10
2022-08-29T21:05:39.479Z,77.10
2022-08-29T21:08:07.275Z,77.10
2022-08-29T21:10:35.547Z,77.10
2022-08-29T21:13:02.538Z,77.10
2022-08-29T21:15:29.189Z,77.40
2022-08-29T21:17:55.893Z,77.50
2022-08-29T21:20:22.567Z,77.60
2022-08-29T21:22:49.243Z,77.80
2022-08-29T21:25:16.539Z,78.00
2022-08-29T21:27:43.250Z,78.00
2022-08-29T21:30:10.585Z,78.00
2022-08-29T21:32:37.332Z,78.20
2022-08-29T21:35:04.619Z,78.20
2022-08-29T21:37:31.334Z,78.30
2022-08-29T21:39:58.692Z,78.50
2022-08-29T21:42:25.511Z,78.70
2022-08-29T21:44:55.312Z,78.90
2022-08-29T21:47:22.083Z,79.10
2022-08-29T21:49:51.527Z,79.30
2022-08-29T21:52:19.299Z,79.50
2022-08-29T21:54:48.727Z,79.50
2022-08-29T21:57:18.773Z,79.70
2022-08-29T21:59:46.475Z,79.90
2022-08-29T22:02:14.610Z,80.30
2022-08-29T22:04:41.913Z,80.40
2022-08-29T22:07:09.129Z,80.50
2022-08-29T22:09:36.526Z,80.60
2022-08-29T22:12:03.697Z,80.70
2022-08-29T22:14:49.417Z,80.80
2022-08-29T22:17:16.562Z,80.90
2022-08-29T22:19:43.345Z,81.00
2022-08-29T22:22:10.235Z,80.90
2022-08-29T22:24:37.366Z,81.00
2022-08-29T22:27:04.143Z,81.00
2022-08-29T22:29:30.798Z,81.20
2022-08-29T22:31:57.465Z,81.40
2022-08-29T22:34:26.032Z,81.50
2022-08-29T22:36:52.964Z,81.40
2022-08-29T22:39:19.658Z,81.60
2022-08-29T22:41:47.705Z,81.30
2022-08-29T22:47:02.210Z,81.30
2022-08-29T22:49:33.295Z,81.40
2022-08-29T22:52:00.237Z,81.50
2022-08-29T22:54:36.090Z,81.40
2022-08-29T22:57:23.135Z,81.50
2022-08-29T22:59:49.826Z,81.40
2022-08-29T23:02:19.364Z,81.50
2022-08-29T23:04:48.292Z,81.60
2022-08-29T23:07:15.031Z,81.80
2022-08-29T23:09:43.290Z,81.80
2022-08-29T23:12:12.870Z,81.90
2022-08-29T23:14:42.035Z,81.90
2022-08-29T23:17:09.379Z,82.10
2022-08-29T23:19:36.689Z,81.90
2022-08-29T23:22:06.340Z,81.90
2022-08-29T23:24:33.555Z,82.10
2022-08-29T23:27:00.385Z,81.90
2022-08-29T23:29:29.495Z,82.10
2022-08-29T23:31:56.321Z,82.10
2022-08-29T23:34:23.966Z,82.30
2022-08-29T23:36:50.682Z,82.20
2022-08-29T23:39:17.336Z,82.20
2022-08-29T23:41:44.022Z,82.20
2022-08-29T23:44:10.681Z,82.20
2022-08-29T23:46:37.835Z,82.10
2022-08-29T23:49:05.902Z,82.20
2022-08-29T23:51:32.821Z,82.20
2022-08-29T23:53:59.586Z,82.30
2022-08-29T23:56:26.345Z,82.40
2022-08-29T23:58:56.867Z,82.40
